sensor_id;sensor_type;location;lat;lon;timestamp;P1;durP1;ratioP1;P2;durP2;ratioP2
28772;SDS011;15925;51.222;5.678;2023-08-08T00:00:50;3.07;;;1.20;;
28772;SDS011;15925;51.222;5.678;2023-08-08T00:03:16;5.45;;;1.95;;
28772;SDS011;15925;51.222;5.678;2023-08-08T00:05:42;5.53;;;1.85;;
28772;SDS011;15925;51.222;5.678;2023-08-08T00:08:07;2.63;;;1.17;;
28772;SDS011;15925;51.222;5.678;2023-08-08T00:10:33;6.37;;;1.53;;
28772;SDS011;15925;51.222;5.678;2023-08-08T00:12:59;3.45;;;1.67;;
28772;SDS011;15925;51.222;5.678;2023-08-08T00:15:25;2.90;;;1.43;;
28772;SDS011;15925;51.222;5.678;2023-08-08T00:17:51;1.90;;;0.93;;
28772;SDS011;15925;51.222;5.678;2023-08-08T00:20:17;12.75;;;1.10;;
28772;SDS011;15925;51.222;5.678;2023-08-08T00:22:43;1.88;;;1.15;;
28772;SDS011;15925;51.222;5.678;2023-08-08T00:25:08;7.53;;;1.27;;
28772;SDS011;15925;51.222;5.678;2023-08-08T00:27:34;2.33;;;1.03;;
28772;SDS011;15925;51.222;5.678;2023-08-08T00:30:01;2.72;;;1.38;;
28772;SDS011;15925;51.222;5.678;2023-08-08T00:32:26;2.50;;;1.05;;
28772;SDS011;15925;51.222;5.678;2023-08-08T00:34:52;4.17;;;1.10;;
28772;SDS011;15925;51.222;5.678;2023-08-08T00:37:18;1.50;;;1.00;;
28772;SDS011;15925;51.222;5.678;2023-08-08T00:39:44;1.63;;;0.90;;
28772;SDS011;15925;51.222;5.678;2023-08-08T00:42:12;8.07;;;1.35;;
28772;SDS011;15925;51.222;5.678;2023-08-08T00:44:38;3.38;;;0.82;;
28772;SDS011;15925;51.222;5.678;2023-08-08T00:47:06;4.38;;;1.40;;
28772;SDS011;15925;51.222;5.678;2023-08-08T00:49:33;6.35;;;1.35;;
28772;SDS011;15925;51.222;5.678;2023-08-08T00:52:00;2.25;;;1.38;;
28772;SDS011;15925;51.222;5.678;2023-08-08T00:54:26;4.28;;;1.42;;
28772;SDS011;15925;51.222;5.678;2023-08-08T00:56:52;1.42;;;0.82;;
28772;SDS011;15925;51.222;5.678;2023-08-08T00:59:19;2.30;;;1.40;;
28772;SDS011;15925;51.222;5.678;2023-08-08T01:01:45;4.32;;;1.10;;
28772;SDS011;15925;51.222;5.678;2023-08-08T01:04:11;2.13;;;1.20;;
28772;SDS011;15925;51.222;5.678;2023-08-08T01:06:59;6.45;;;1.30;;
28772;SDS011;15925;51.222;5.678;2023-08-08T01:11:58;3.50;;;1.25;;
28772;SDS011;15925;51.222;5.678;2023-08-08T01:14:26;4.47;;;1.30;;
28772;SDS011;15925;51.222;5.678;2023-08-08T01:16:54;2.53;;;1.42;;
28772;SDS011;15925;51.222;5.678;2023-08-08T01:19:25;6.03;;;1.50;;
28772;SDS011;15925;51.222;5.678;2023-08-08T01:21:53;1.95;;;0.98;;
28772;SDS011;15925;51.222;5.678;2023-08-08T01:24:23;2.55;;;1.15;;
28772;SDS011;15925;51.222;5.678;2023-08-08T01:26:52;9.27;;;1.40;;
28772;SDS011;15925;51.222;5.678;2023-08-08T01:31:45;2.45;;;1.05;;
28772;SDS011;15925;51.222;5.678;2023-08-08T01:34:11;2.83;;;1.10;;
28772;SDS011;15925;51.222;5.678;2023-08-08T01:39:27;2.60;;;1.02;;
28772;SDS011;15925;51.222;5.678;2023-08-08T01:41:55;4.18;;;1.27;;
28772;SDS011;15925;51.222;5.678;2023-08-08T01:44:23;8.25;;;1.33;;
28772;SDS011;15925;51.222;5.678;2023-08-08T01:46:51;1.95;;;1.10;;
28772;SDS011;15925;51.222;5.678;2023-08-08T01:49:18;1.75;;;1.10;;
28772;SDS011;15925;51.222;5.678;2023-08-08T01:51:44;1.13;;;1.03;;
28772;SDS011;15925;51.222;5.678;2023-08-08T01:54:10;1.00;;;0.70;;
28772;SDS011;15925;51.222;5.678;2023-08-08T01:56:37;1.58;;;1.08;;
28772;SDS011;15925;51.222;5.678;2023-08-08T01:59:02;1.57;;;1.10;;
28772;SDS011;15925;51.222;5.678;2023-08-08T02:01:28;4.00;;;1.17;;
28772;SDS011;15925;51.222;5.678;2023-08-08T02:03:55;7.45;;;1.80;;
28772;SDS011;15925;51.222;5.678;2023-08-08T02:06:21;6.47;;;0.97;;
28772;SDS011;15925;51.222;5.678;2023-08-08T02:08:47;4.37;;;1.30;;
28772;SDS011;15925;51.222;5.678;2023-08-08T02:11:13;5.82;;;1.25;;
28772;SDS011;15925;51.222;5.678;2023-08-08T02:13:39;1.30;;;0.80;;
28772;SDS011;15925;51.222;5.678;2023-08-08T02:16:04;6.10;;;1.10;;
28772;SDS011;15925;51.222;5.678;2023-08-08T02:18:30;2.30;;;1.20;;
28772;SDS011;15925;51.222;5.678;2023-08-08T02:20:56;3.33;;;1.00;;
28772;SDS011;15925;51.222;5.678;2023-08-08T02:23:22;3.33;;;1.20;;
28772;SDS011;15925;51.222;5.678;2023-08-08T02:25:47;3.60;;;1.10;;
28772;SDS011;15925;51.222;5.678;2023-08-08T02:28:14;1.38;;;0.70;;
28772;SDS011;15925;51.222;5.678;2023-08-08T02:30:43;1.50;;;0.70;;
28772;SDS011;15925;51.222;5.678;2023-08-08T02:33:09;6.78;;;1.15;;
28772;SDS011;15925;51.222;5.678;2023-08-08T02:35:36;7.27;;;0.93;;
28772;SDS011;15925;51.222;5.678;2023-08-08T02:38:03;5.95;;;1.25;;
28772;SDS011;15925;51.222;5.678;2023-08-08T02:40:29;10.57;;;1.77;;
28772;SDS011;15925;51.222;5.678;2023-08-08T02:42:55;13.02;;;1.80;;
28772;SDS011;15925;51.222;5.678;2023-08-08T02:45:21;7.97;;;1.70;;
28772;SDS011;15925;51.222;5.678;2023-08-08T02:47:47;6.78;;;1.05;;
28772;SDS011;15925;51.222;5.678;2023-08-08T02:50:13;2.10;;;0.90;;
28772;SDS011;15925;51.222;5.678;2023-08-08T02:52:39;2.67;;;1.00;;
28772;SDS011;15925;51.222;5.678;2023-08-08T02:55:05;2.03;;;1.00;;
28772;SDS011;15925;51.222;5.678;2023-08-08T02:57:31;6.65;;;1.20;;
28772;SDS011;15925;51.222;5.678;2023-08-08T02:59:58;3.92;;;1.23;;
28772;SDS011;15925;51.222;5.678;2023-08-08T03:04:51;7.15;;;0.95;;
28772;SDS011;15925;51.222;5.678;2023-08-08T03:07:17;1.83;;;0.85;;
28772;SDS011;15925;51.222;5.678;2023-08-08T03:12:11;2.75;;;1.20;;
28772;SDS011;15925;51.222;5.678;2023-08-08T03:14:37;5.88;;;1.30;;
28772;SDS011;15925;51.222;5.678;2023-08-08T03:17:03;2.43;;;1.07;;
28772;SDS011;15925;51.222;5.678;2023-08-08T03:19:31;2.25;;;1.20;;
28772;SDS011;15925;51.222;5.678;2023-08-08T03:21:58;5.07;;;1.08;;
28772;SDS011;15925;51.222;5.678;2023-08-08T03:24:25;4.03;;;0.73;;
28772;SDS011;15925;51.222;5.678;2023-08-08T03:26:51;2.67;;;1.40;;
28772;SDS011;15925;51.222;5.678;2023-08-08T03:29:17;5.35;;;1.15;;
28772;SDS011;15925;51.222;5.678;2023-08-08T03:31:46;6.93;;;1.38;;
28772;SDS011;15925;51.222;5.678;2023-08-08T03:34:12;2.15;;;0.85;;
28772;SDS011;15925;51.222;5.678;2023-08-08T03:36:40;15.40;;;1.73;;
28772;SDS011;15925;51.222;5.678;2023-08-08T03:39:07;9.82;;;1.52;;
28772;SDS011;15925;51.222;5.678;2023-08-08T03:41:34;2.90;;;1.57;;
28772;SDS011;15925;51.222;5.678;2023-08-08T03:43:59;4.57;;;1.00;;
28772;SDS011;15925;51.222;5.678;2023-08-08T03:46:28;2.90;;;1.67;;
28772;SDS011;15925;51.222;5.678;2023-08-08T03:48:54;2.22;;;1.33;;
28772;SDS011;15925;51.222;5.678;2023-08-08T03:51:19;2.33;;;0.83;;
28772;SDS011;15925;51.222;5.678;2023-08-08T03:53:45;1.77;;;1.23;;
28772;SDS011;15925;51.222;5.678;2023-08-08T03:56:11;4.30;;;1.43;;
28772;SDS011;15925;51.222;5.678;2023-08-08T03:58:37;7.97;;;1.73;;
28772;SDS011;15925;51.222;5.678;2023-08-08T04:01:04;4.93;;;1.90;;
28772;SDS011;15925;51.222;5.678;2023-08-08T04:03:30;1.88;;;0.98;;
28772;SDS011;15925;51.222;5.678;2023-08-08T04:05:56;9.10;;;1.35;;
28772;SDS011;15925;51.222;5.678;2023-08-08T04:08:22;6.60;;;1.23;;
28772;SDS011;15925;51.222;5.678;2023-08-08T04:10:48;3.03;;;1.20;;
28772;SDS011;15925;51.222;5.678;2023-08-08T04:13:14;1.60;;;1.03;;
28772;SDS011;15925;51.222;5.678;2023-08-08T04:18:06;2.10;;;1.02;;
28772;SDS011;15925;51.222;5.678;2023-08-08T04:20:32;1.97;;;1.53;;
28772;SDS011;15925;51.222;5.678;2023-08-08T04:22:59;6.20;;;1.55;;
28772;SDS011;15925;51.222;5.678;2023-08-08T04:25:25;4.45;;;1.60;;
28772;SDS011;15925;51.222;5.678;2023-08-08T04:27:52;6.65;;;1.58;;
28772;SDS011;15925;51.222;5.678;2023-08-08T04:30:18;2.75;;;1.13;;
28772;SDS011;15925;51.222;5.678;2023-08-08T04:32:44;5.38;;;1.58;;
28772;SDS011;15925;51.222;5.678;2023-08-08T04:35:10;2.95;;;1.92;;
28772;SDS011;15925;51.222;5.678;2023-08-08T04:37:36;6.10;;;1.05;;
28772;SDS011;15925;51.222;5.678;2023-08-08T04:40:02;4.43;;;1.60;;
28772;SDS011;15925;51.222;5.678;2023-08-08T04:42:28;7.25;;;1.80;;
28772;SDS011;15925;51.222;5.678;2023-08-08T04:44:55;9.23;;;1.77;;
28772;SDS011;15925;51.222;5.678;2023-08-08T04:47:21;1.93;;;1.20;;
28772;SDS011;15925;51.222;5.678;2023-08-08T04:49:46;13.53;;;2.53;;
28772;SDS011;15925;51.222;5.678;2023-08-08T04:52:12;2.63;;;1.53;;
28772;SDS011;15925;51.222;5.678;2023-08-08T04:54:38;5.40;;;1.60;;
28772;SDS011;15925;51.222;5.678;2023-08-08T04:57:04;3.40;;;1.38;;
28772;SDS011;15925;51.222;5.678;2023-08-08T04:59:30;9.57;;;1.42;;
28772;SDS011;15925;51.222;5.678;2023-08-08T05:01:56;3.40;;;1.03;;
28772;SDS011;15925;51.222;5.678;2023-08-08T05:04:21;3.67;;;1.10;;
28772;SDS011;15925;51.222;5.678;2023-08-08T05:06:47;5.40;;;1.63;;
28772;SDS011;15925;51.222;5.678;2023-08-08T05:09:13;2.63;;;1.37;;
28772;SDS011;15925;51.222;5.678;2023-08-08T05:11:39;13.30;;;1.50;;
28772;SDS011;15925;51.222;5.678;2023-08-08T05:14:04;13.00;;;1.50;;
28772;SDS011;15925;51.222;5.678;2023-08-08T05:16:30;9.27;;;1.90;;
28772;SDS011;15925;51.222;5.678;2023-08-08T05:18:56;2.20;;;1.23;;
28772;SDS011;15925;51.222;5.678;2023-08-08T05:21:22;5.00;;;1.60;;
28772;SDS011;15925;51.222;5.678;2023-08-08T05:23:48;3.87;;;1.73;;
28772;SDS011;15925;51.222;5.678;2023-08-08T05:26:14;10.47;;;2.00;;
28772;SDS011;15925;51.222;5.678;2023-08-08T05:28:40;2.08;;;0.98;;
28772;SDS011;15925;51.222;5.678;2023-08-08T05:31:06;1.90;;;1.13;;
28772;SDS011;15925;51.222;5.678;2023-08-08T05:33:32;5.43;;;1.27;;
28772;SDS011;15925;51.222;5.678;2023-08-08T05:35:58;12.47;;;1.50;;
28772;SDS011;15925;51.222;5.678;2023-08-08T05:38:24;9.20;;;2.07;;
28772;SDS011;15925;51.222;5.678;2023-08-08T05:40:50;3.30;;;1.30;;
28772;SDS011;15925;51.222;5.678;2023-08-08T05:43:16;4.03;;;2.10;;
28772;SDS011;15925;51.222;5.678;2023-08-08T05:45:44;1.98;;;1.30;;
28772;SDS011;15925;51.222;5.678;2023-08-08T05:50:40;15.00;;;1.57;;
28772;SDS011;15925;51.222;5.678;2023-08-08T05:53:06;7.20;;;1.63;;
28772;SDS011;15925;51.222;5.678;2023-08-08T05:55:32;9.48;;;2.40;;
28772;SDS011;15925;51.222;5.678;2023-08-08T05:57:58;5.72;;;1.58;;
28772;SDS011;15925;51.222;5.678;2023-08-08T06:00:24;12.95;;;1.60;;
28772;SDS011;15925;51.222;5.678;2023-08-08T06:02:50;8.02;;;1.10;;
28772;SDS011;15925;51.222;5.678;2023-08-08T06:05:16;6.20;;;1.03;;
28772;SDS011;15925;51.222;5.678;2023-08-08T06:07:42;7.15;;;1.90;;
28772;SDS011;15925;51.222;5.678;2023-08-08T06:10:09;6.72;;;1.80;;
28772;SDS011;15925;51.222;5.678;2023-08-08T06:15:01;5.25;;;1.20;;
28772;SDS011;15925;51.222;5.678;2023-08-08T06:17:27;10.65;;;1.80;;
28772;SDS011;15925;51.222;5.678;2023-08-08T06:19:52;5.50;;;1.93;;
28772;SDS011;15925;51.222;5.678;2023-08-08T06:22:19;11.73;;;1.80;;
28772;SDS011;15925;51.222;5.678;2023-08-08T06:24:45;9.15;;;1.98;;
28772;SDS011;15925;51.222;5.678;2023-08-08T06:27:12;5.27;;;2.17;;
28772;SDS011;15925;51.222;5.678;2023-08-08T06:29:38;11.73;;;1.92;;
28772;SDS011;15925;51.222;5.678;2023-08-08T06:32:04;4.00;;;1.52;;
28772;SDS011;15925;51.222;5.678;2023-08-08T06:34:30;9.98;;;2.10;;
28772;SDS011;15925;51.222;5.678;2023-08-08T06:36:56;6.35;;;2.17;;
28772;SDS011;15925;51.222;5.678;2023-08-08T06:39:22;14.07;;;1.88;;
28772;SDS011;15925;51.222;5.678;2023-08-08T06:41:48;12.77;;;2.07;;
28772;SDS011;15925;51.222;5.678;2023-08-08T06:44:18;4.45;;;1.77;;
28772;SDS011;15925;51.222;5.678;2023-08-08T06:46:44;5.63;;;1.77;;
28772;SDS011;15925;51.222;5.678;2023-08-08T06:49:10;2.40;;;1.27;;
28772;SDS011;15925;51.222;5.678;2023-08-08T06:51:36;6.70;;;1.73;;
28772;SDS011;15925;51.222;5.678;2023-08-08T06:54:02;1.40;;;0.90;;
28772;SDS011;15925;51.222;5.678;2023-08-08T06:56:28;12.90;;;2.13;;
28772;SDS011;15925;51.222;5.678;2023-08-08T06:58:54;8.27;;;1.58;;
28772;SDS011;15925;51.222;5.678;2023-08-08T07:01:20;16.13;;;2.85;;
28772;SDS011;15925;51.222;5.678;2023-08-08T07:03:49;9.07;;;1.52;;
28772;SDS011;15925;51.222;5.678;2023-08-08T07:06:17;3.53;;;1.93;;
28772;SDS011;15925;51.222;5.678;2023-08-08T07:08:43;2.78;;;1.30;;
28772;SDS011;15925;51.222;5.678;2023-08-08T07:11:08;2.70;;;1.40;;
28772;SDS011;15925;51.222;5.678;2023-08-08T07:13:34;7.67;;;1.33;;
28772;SDS011;15925;51.222;5.678;2023-08-08T07:16:00;12.87;;;1.70;;
28772;SDS011;15925;51.222;5.678;2023-08-08T07:18:26;9.32;;;2.28;;
28772;SDS011;15925;51.222;5.678;2023-08-08T07:20:52;5.17;;;1.53;;
28772;SDS011;15925;51.222;5.678;2023-08-08T07:23:18;13.65;;;1.92;;
28772;SDS011;15925;51.222;5.678;2023-08-08T07:25:45;4.07;;;2.28;;
28772;SDS011;15925;51.222;5.678;2023-08-08T07:28:12;3.38;;;1.92;;
28772;SDS011;15925;51.222;5.678;2023-08-08T07:30:39;4.30;;;1.70;;
28772;SDS011;15925;51.222;5.678;2023-08-08T07:33:06;4.65;;;1.58;;
28772;SDS011;15925;51.222;5.678;2023-08-08T07:35:34;9.32;;;1.63;;
28772;SDS011;15925;51.222;5.678;2023-08-08T07:38:00;6.55;;;2.08;;
28772;SDS011;15925;51.222;5.678;2023-08-08T07:40:25;6.85;;;1.35;;
28772;SDS011;15925;51.222;5.678;2023-08-08T07:42:52;10.30;;;1.98;;
28772;SDS011;15925;51.222;5.678;2023-08-08T07:45:18;8.45;;;2.35;;
28772;SDS011;15925;51.222;5.678;2023-08-08T07:47:43;19.57;;;2.23;;
28772;SDS011;15925;51.222;5.678;2023-08-08T07:50:09;6.07;;;1.48;;
28772;SDS011;15925;51.222;5.678;2023-08-08T07:52:36;6.43;;;2.20;;
28772;SDS011;15925;51.222;5.678;2023-08-08T07:55:02;14.43;;;1.70;;
28772;SDS011;15925;51.222;5.678;2023-08-08T07:57:28;2.30;;;1.33;;
28772;SDS011;15925;51.222;5.678;2023-08-08T07:59:55;11.25;;;2.17;;
28772;SDS011;15925;51.222;5.678;2023-08-08T08:02:21;13.25;;;1.67;;
28772;SDS011;15925;51.222;5.678;2023-08-08T08:04:47;22.33;;;2.57;;
28772;SDS011;15925;51.222;5.678;2023-08-08T08:07:13;18.47;;;2.23;;
28772;SDS011;15925;51.222;5.678;2023-08-08T08:09:38;9.10;;;1.63;;
28772;SDS011;15925;51.222;5.678;2023-08-08T08:12:07;8.90;;;2.08;;
28772;SDS011;15925;51.222;5.678;2023-08-08T08:14:33;5.15;;;2.08;;
28772;SDS011;15925;51.222;5.678;2023-08-08T08:16:59;9.90;;;2.33;;
28772;SDS011;15925;51.222;5.678;2023-08-08T08:19:25;9.27;;;1.83;;
28772;SDS011;15925;51.222;5.678;2023-08-08T08:21:51;10.00;;;2.00;;
28772;SDS011;15925;51.222;5.678;2023-08-08T08:24:16;6.55;;;1.73;;
28772;SDS011;15925;51.222;5.678;2023-08-08T08:26:42;2.30;;;1.30;;
28772;SDS011;15925;51.222;5.678;2023-08-08T08:29:08;18.47;;;2.53;;
28772;SDS011;15925;51.222;5.678;2023-08-08T08:31:34;11.17;;;1.67;;
28772;SDS011;15925;51.222;5.678;2023-08-08T08:33:59;3.17;;;1.47;;
28772;SDS011;15925;51.222;5.678;2023-08-08T08:36:25;16.10;;;1.40;;
28772;SDS011;15925;51.222;5.678;2023-08-08T08:38:51;11.38;;;2.05;;
28772;SDS011;15925;51.222;5.678;2023-08-08T08:41:18;7.38;;;1.35;;
28772;SDS011;15925;51.222;5.678;2023-08-08T08:43:45;6.68;;;1.65;;
28772;SDS011;15925;51.222;5.678;2023-08-08T08:46:12;12.40;;;1.55;;
28772;SDS011;15925;51.222;5.678;2023-08-08T08:48:43;7.20;;;1.40;;
28772;SDS011;15925;51.222;5.678;2023-08-08T08:51:09;1.15;;;0.88;;
28772;SDS011;15925;51.222;5.678;2023-08-08T08:53:36;12.57;;;1.58;;
28772;SDS011;15925;51.222;5.678;2023-08-08T08:56:04;1.48;;;1.05;;
28772;SDS011;15925;51.222;5.678;2023-08-08T08:58:30;2.83;;;0.90;;
28772;SDS011;15925;51.222;5.678;2023-08-08T09:00:56;3.33;;;0.80;;
28772;SDS011;15925;51.222;5.678;2023-08-08T09:03:23;8.80;;;1.40;;
28772;SDS011;15925;51.222;5.678;2023-08-08T09:05:49;10.13;;;1.35;;
28772;SDS011;15925;51.222;5.678;2023-08-08T09:08:19;9.02;;;0.98;;
28772;SDS011;15925;51.222;5.678;2023-08-08T09:10:45;5.85;;;1.15;;
28772;SDS011;15925;51.222;5.678;2023-08-08T09:13:11;3.33;;;1.20;;
28772;SDS011;15925;51.222;5.678;2023-08-08T09:15:37;3.97;;;1.87;;
28772;SDS011;15925;51.222;5.678;2023-08-08T09:18:02;4.20;;;1.50;;
28772;SDS011;15925;51.222;5.678;2023-08-08T09:20:28;7.53;;;0.77;;
28772;SDS011;15925;51.222;5.678;2023-08-08T09:22:54;7.10;;;1.17;;
28772;SDS011;15925;51.222;5.678;2023-08-08T09:25:20;2.83;;;0.93;;
28772;SDS011;15925;51.222;5.678;2023-08-08T09:27:46;7.15;;;1.08;;
28772;SDS011;15925;51.222;5.678;2023-08-08T09:30:12;1.17;;;0.90;;
28772;SDS011;15925;51.222;5.678;2023-08-08T09:32:38;2.00;;;0.75;;
28772;SDS011;15925;51.222;5.678;2023-08-08T09:35:04;4.00;;;1.23;;
28772;SDS011;15925;51.222;5.678;2023-08-08T09:37:34;1.05;;;0.90;;
28772;SDS011;15925;51.222;5.678;2023-08-08T09:40:01;13.73;;;1.30;;
28772;SDS011;15925;51.222;5.678;2023-08-08T09:42:29;4.32;;;1.27;;
28772;SDS011;15925;51.222;5.678;2023-08-08T09:44:55;2.83;;;0.80;;
28772;SDS011;15925;51.222;5.678;2023-08-08T09:47:22;1.23;;;0.63;;
28772;SDS011;15925;51.222;5.678;2023-08-08T09:49:48;1.23;;;0.82;;
28772;SDS011;15925;51.222;5.678;2023-08-08T09:52:14;15.02;;;0.90;;
28772;SDS011;15925;51.222;5.678;2023-08-08T09:54:41;8.55;;;1.38;;
28772;SDS011;15925;51.222;5.678;2023-08-08T09:57:07;1.17;;;0.85;;
28772;SDS011;15925;51.222;5.678;2023-08-08T09:59:34;7.82;;;0.70;;
28772;SDS011;15925;51.222;5.678;2023-08-08T10:02:00;8.20;;;0.98;;
28772;SDS011;15925;51.222;5.678;2023-08-08T10:04:27;2.35;;;0.98;;
28772;SDS011;15925;51.222;5.678;2023-08-08T10:06:53;5.78;;;1.27;;
28772;SDS011;15925;51.222;5.678;2023-08-08T10:09:19;6.18;;;1.38;;
28772;SDS011;15925;51.222;5.678;2023-08-08T10:11:45;4.85;;;0.77;;
28772;SDS011;15925;51.222;5.678;2023-08-08T10:14:12;14.50;;;1.88;;
28772;SDS011;15925;51.222;5.678;2023-08-08T10:16:39;1.50;;;0.60;;
28772;SDS011;15925;51.222;5.678;2023-08-08T10:19:08;7.10;;;1.50;;
28772;SDS011;15925;51.222;5.678;2023-08-08T10:21:35;4.75;;;0.77;;
28772;SDS011;15925;51.222;5.678;2023-08-08T10:24:02;3.10;;;0.95;;
28772;SDS011;15925;51.222;5.678;2023-08-08T10:26:29;10.35;;;1.50;;
28772;SDS011;15925;51.222;5.678;2023-08-08T10:28:55;5.50;;;1.25;;
28772;SDS011;15925;51.222;5.678;2023-08-08T10:31:22;2.92;;;0.90;;
28772;SDS011;15925;51.222;5.678;2023-08-08T10:33:48;1.50;;;1.00;;
28772;SDS011;15925;51.222;5.678;2023-08-08T10:36:14;7.93;;;1.00;;
28772;SDS011;15925;51.222;5.678;2023-08-08T10:38:48;6.40;;;0.80;;
28772;SDS011;15925;51.222;5.678;2023-08-08T10:41:17;6.05;;;1.10;;
28772;SDS011;15925;51.222;5.678;2023-08-08T10:43:51;6.43;;;0.40;;
28772;SDS011;15925;51.222;5.678;2023-08-08T10:46:23;4.38;;;1.15;;
28772;SDS011;15925;51.222;5.678;2023-08-08T10:48:51;1.65;;;0.90;;
28772;SDS011;15925;51.222;5.678;2023-08-08T10:51:18;2.95;;;0.85;;
28772;SDS011;15925;51.222;5.678;2023-08-08T10:53:44;2.15;;;0.77;;
28772;SDS011;15925;51.222;5.678;2023-08-08T10:56:12;3.72;;;1.17;;
28772;SDS011;15925;51.222;5.678;2023-08-08T10:58:39;4.63;;;1.05;;
28772;SDS011;15925;51.222;5.678;2023-08-08T11:01:06;5.03;;;1.00;;
28772;SDS011;15925;51.222;5.678;2023-08-08T11:03:37;4.88;;;0.73;;
28772;SDS011;15925;51.222;5.678;2023-08-08T11:06:10;1.10;;;0.80;;
28772;SDS011;15925;51.222;5.678;2023-08-08T11:08:36;4.75;;;1.10;;
28772;SDS011;15925;51.222;5.678;2023-08-08T11:11:06;4.32;;;1.35;;
28772;SDS011;15925;51.222;5.678;2023-08-08T11:13:32;5.22;;;1.42;;
28772;SDS011;15925;51.222;5.678;2023-08-08T11:20:53;11.52;;;1.50;;
28772;SDS011;15925;51.222;5.678;2023-08-08T11:23:19;11.63;;;1.40;;
28772;SDS011;15925;51.222;5.678;2023-08-08T11:28:11;2.05;;;1.10;;
28772;SDS011;15925;51.222;5.678;2023-08-08T11:30:40;4.10;;;1.33;;
28772;SDS011;15925;51.222;5.678;2023-08-08T11:33:08;2.33;;;1.05;;
28772;SDS011;15925;51.222;5.678;2023-08-08T11:35:34;3.50;;;1.20;;
28772;SDS011;15925;51.222;5.678;2023-08-08T11:38:00;2.08;;;1.13;;
28772;SDS011;15925;51.222;5.678;2023-08-08T11:40:28;2.97;;;1.08;;
28772;SDS011;15925;51.222;5.678;2023-08-08T11:42:55;5.75;;;1.15;;
28772;SDS011;15925;51.222;5.678;2023-08-08T11:45:22;5.63;;;1.42;;
28772;SDS011;15925;51.222;5.678;2023-08-08T11:47:50;14.02;;;1.42;;
28772;SDS011;15925;51.222;5.678;2023-08-08T11:50:19;19.70;;;1.45;;
28772;SDS011;15925;51.222;5.678;2023-08-08T11:52:48;1.48;;;1.00;;
28772;SDS011;15925;51.222;5.678;2023-08-08T11:55:16;4.43;;;1.13;;
28772;SDS011;15925;51.222;5.678;2023-08-08T11:57:42;4.03;;;1.00;;
28772;SDS011;15925;51.222;5.678;2023-08-08T12:00:08;4.50;;;0.93;;
28772;SDS011;15925;51.222;5.678;2023-08-08T12:02:43;2.63;;;0.82;;
28772;SDS011;15925;51.222;5.678;2023-08-08T12:05:13;10.75;;;1.08;;
28772;SDS011;15925;51.222;5.678;2023-08-08T12:07:43;12.85;;;1.17;;
28772;SDS011;15925;51.222;5.678;2023-08-08T12:10:17;3.55;;;0.75;;
28772;SDS011;15925;51.222;5.678;2023-08-08T12:12:45;0.73;;;0.65;;
28772;SDS011;15925;51.222;5.678;2023-08-08T12:15:11;9.63;;;1.30;;
28772;SDS011;15925;51.222;5.678;2023-08-08T12:17:38;0.60;;;0.60;;
28772;SDS011;15925;51.222;5.678;2023-08-08T12:22:31;15.00;;;1.30;;
28772;SDS011;15925;51.222;5.678;2023-08-08T12:24:57;1.13;;;0.70;;
28772;SDS011;15925;51.222;5.678;2023-08-08T12:27:23;1.15;;;0.50;;
28772;SDS011;15925;51.222;5.678;2023-08-08T12:29:49;4.47;;;0.87;;
28772;SDS011;15925;51.222;5.678;2023-08-08T12:32:14;1.90;;;0.97;;
28772;SDS011;15925;51.222;5.678;2023-08-08T12:34:40;1.23;;;0.90;;
28772;SDS011;15925;51.222;5.678;2023-08-08T12:37:06;4.30;;;1.13;;
28772;SDS011;15925;51.222;5.678;2023-08-08T12:39:32;0.50;;;0.47;;
28772;SDS011;15925;51.222;5.678;2023-08-08T12:41:58;1.17;;;0.40;;
28772;SDS011;15925;51.222;5.678;2023-08-08T12:44:24;1.67;;;0.83;;
28772;SDS011;15925;51.222;5.678;2023-08-08T12:46:49;2.37;;;0.63;;
28772;SDS011;15925;51.222;5.678;2023-08-08T12:49:15;2.00;;;0.70;;
28772;SDS011;15925;51.222;5.678;2023-08-08T12:51:41;5.82;;;1.35;;
28772;SDS011;15925;51.222;5.678;2023-08-08T12:54:07;1.03;;;0.57;;
28772;SDS011;15925;51.222;5.678;2023-08-08T12:56:33;0.63;;;0.53;;
28772;SDS011;15925;51.222;5.678;2023-08-08T12:58:58;0.67;;;0.50;;
28772;SDS011;15925;51.222;5.678;2023-08-08T13:01:24;1.30;;;0.60;;
28772;SDS011;15925;51.222;5.678;2023-08-08T13:03:50;12.23;;;1.00;;
28772;SDS011;15925;51.222;5.678;2023-08-08T13:06:16;6.03;;;0.40;;
28772;SDS011;15925;51.222;5.678;2023-08-08T13:08:42;5.95;;;0.50;;
28772;SDS011;15925;51.222;5.678;2023-08-08T13:11:08;3.67;;;0.90;;
28772;SDS011;15925;51.222;5.678;2023-08-08T13:13:33;0.83;;;0.43;;
28772;SDS011;15925;51.222;5.678;2023-08-08T13:15:59;3.63;;;0.50;;
28772;SDS011;15925;51.222;5.678;2023-08-08T13:18:25;9.63;;;0.77;;
28772;SDS011;15925;51.222;5.678;2023-08-08T13:20:51;2.63;;;0.45;;
28772;SDS011;15925;51.222;5.678;2023-08-08T13:23:17;1.70;;;0.73;;
28772;SDS011;15925;51.222;5.678;2023-08-08T13:25:43;1.23;;;0.52;;
28772;SDS011;15925;51.222;5.678;2023-08-08T13:28:09;0.50;;;0.50;;
28772;SDS011;15925;51.222;5.678;2023-08-08T13:30:35;2.07;;;0.80;;
28772;SDS011;15925;51.222;5.678;2023-08-08T13:33:01;1.65;;;0.85;;
28772;SDS011;15925;51.222;5.678;2023-08-08T13:35:28;0.93;;;0.68;;
28772;SDS011;15925;51.222;5.678;2023-08-08T13:37:56;0.60;;;0.40;;
28772;SDS011;15925;51.222;5.678;2023-08-08T13:40:23;17.30;;;0.90;;
28772;SDS011;15925;51.222;5.678;2023-08-08T13:42:48;0.70;;;0.50;;
28772;SDS011;15925;51.222;5.678;2023-08-08T13:45:15;10.10;;;0.82;;
28772;SDS011;15925;51.222;5.678;2023-08-08T13:47:45;1.25;;;0.43;;
28772;SDS011;15925;51.222;5.678;2023-08-08T13:50:12;2.33;;;0.30;;
28772;SDS011;15925;51.222;5.678;2023-08-08T13:52:39;1.15;;;0.60;;
28772;SDS011;15925;51.222;5.678;2023-08-08T13:57:32;2.20;;;0.63;;
28772;SDS011;15925;51.222;5.678;2023-08-08T13:59:57;5.83;;;1.00;;
28772;SDS011;15925;51.222;5.678;2023-08-08T14:02:23;1.43;;;0.53;;
28772;SDS011;15925;51.222;5.678;2023-08-08T14:04:49;1.93;;;0.80;;
28772;SDS011;15925;51.222;5.678;2023-08-08T14:07:15;0.50;;;0.32;;
28772;SDS011;15925;51.222;5.678;2023-08-08T14:09:41;0.65;;;0.38;;
28772;SDS011;15925;51.222;5.678;2023-08-08T14:12:07;1.50;;;0.50;;
28772;SDS011;15925;51.222;5.678;2023-08-08T14:14:33;1.10;;;0.50;;
28772;SDS011;15925;51.222;5.678;2023-08-08T14:16:58;3.93;;;0.70;;
28772;SDS011;15925;51.222;5.678;2023-08-08T14:19:24;0.47;;;0.37;;
28772;SDS011;15925;51.222;5.678;2023-08-08T14:21:50;1.87;;;0.70;;
28772;SDS011;15925;51.222;5.678;2023-08-08T14:24:16;0.93;;;0.60;;
28772;SDS011;15925;51.222;5.678;2023-08-08T14:26:42;1.75;;;0.63;;
28772;SDS011;15925;51.222;5.678;2023-08-08T14:29:09;2.78;;;0.73;;
28772;SDS011;15925;51.222;5.678;2023-08-08T14:31:34;1.90;;;0.77;;
28772;SDS011;15925;51.222;5.678;2023-08-08T14:34:00;0.63;;;0.53;;
28772;SDS011;15925;51.222;5.678;2023-08-08T14:36:26;0.90;;;0.80;;
28772;SDS011;15925;51.222;5.678;2023-08-08T14:38:52;2.55;;;0.80;;
28772;SDS011;15925;51.222;5.678;2023-08-08T14:41:18;0.85;;;0.70;;
28772;SDS011;15925;51.222;5.678;2023-08-08T14:43:44;0.80;;;0.70;;
28772;SDS011;15925;51.222;5.678;2023-08-08T14:46:10;1.77;;;0.70;;
28772;SDS011;15925;51.222;5.678;2023-08-08T14:48:36;2.20;;;0.90;;
28772;SDS011;15925;51.222;5.678;2023-08-08T14:51:02;1.40;;;0.90;;
28772;SDS011;15925;51.222;5.678;2023-08-08T14:53:28;1.85;;;0.75;;
28772;SDS011;15925;51.222;5.678;2023-08-08T14:55:54;5.03;;;0.60;;
28772;SDS011;15925;51.222;5.678;2023-08-08T14:58:20;0.55;;;0.55;;
28772;SDS011;15925;51.222;5.678;2023-08-08T15:00:46;0.77;;;0.50;;
28772;SDS011;15925;51.222;5.678;2023-08-08T15:03:13;4.95;;;0.55;;
28772;SDS011;15925;51.222;5.678;2023-08-08T15:05:39;4.78;;;1.00;;
28772;SDS011;15925;51.222;5.678;2023-08-08T15:08:06;1.52;;;0.70;;
28772;SDS011;15925;51.222;5.678;2023-08-08T15:10:32;1.30;;;0.68;;
28772;SDS011;15925;51.222;5.678;2023-08-08T15:12:58;9.52;;;0.95;;